sensor_id;sensor_type;location;lat;lon;timestamp;pressure;altitude;pressure_sealevel;temperature;humidity
71964;BME280;59834;52.124;5.422;2023-05-11T00:01:28;101500.09;;;12.54;100.00
71964;BME280;59834;52.124;5.422;2023-05-11T00:04:01;101494.84;;;12.54;100.00
71964;BME280;59834;52.124;5.422;2023-05-11T00:06:31;101495.69;;;12.55;100.00
71964;BME280;59834;52.124;5.422;2023-05-11T00:08:58;101497.38;;;12.56;100.00
71964;BME280;59834;52.124;5.422;2023-05-11T00:11:25;101489.78;;;12.51;100.00
71964;BME280;59834;52.124;5.422;2023-05-11T00:13:51;101497.75;;;12.49;100.00
71964;BME280;59834;52.124;5.422;2023-05-11T00:16:18;101495.94;;;12.50;100.00
71964;BME280;59834;52.124;5.422;2023-05-11T00:18:45;101500.47;;;12.48;100.00
71964;BME280;59834;52.124;5.422;2023-05-11T00:21:14;101492.78;;;12.45;100.00
71964;BME280;59834;52.124;5.422;2023-05-11T00:23:40;101487.53;;;12.45;100.00
71964;BME280;59834;52.124;5.422;2023-05-11T00:26:07;101479.66;;;12.45;100.00
71964;BME280;59834;52.124;5.422;2023-05-11T00:28:34;101474.59;;;12.42;100.00
71964;BME280;59834;52.124;5.422;2023-05-11T00:31:01;101471.19;;;12.40;100.00
71964;BME280;59834;52.124;5.422;2023-05-11T00:33:31;101467.06;;;12.36;100.00
71964;BME280;59834;52.124;5.422;2023-05-11T00:35:57;101474.28;;;12.32;100.00
71964;BME280;59834;52.124;5.422;2023-05-11T00:38:24;101484.97;;;12.29;100.00
71964;BME280;59834;52.124;5.422;2023-05-11T00:40:50;101490.41;;;12.26;100.00
71964;BME280;59834;52.124;5.422;2023-05-11T00:43:17;101485.16;;;12.26;100.00
71964;BME280;59834;52.124;5.422;2023-05-11T00:45:45;101485.25;;;12.24;100.00
71964;BME280;59834;52.124;5.422;2023-05-11T00:48:16;101483.38;;;12.26;100.00
71964;BME280;59834;52.124;5.422;2023-05-11T00:50:43;101485.81;;;12.30;100.00
71964;BME280;59834;52.124;5.422;2023-05-11T00:53:11;101481.41;;;12.30;100.00
71964;BME280;59834;52.124;5.422;2023-05-11T00:55:41;101488.25;;;12.33;100.00
71964;BME280;59834;52.124;5.422;2023-05-11T00:58:08;101488.44;;;12.30;100.00
71964;BME280;59834;52.124;5.422;2023-05-11T01:00:35;101485.09;;;12.27;100.00
71964;BME280;59834;52.124;5.422;2023-05-11T01:03:02;101489.56;;;12.25;100.00
71964;BME280;59834;52.124;5.422;2023-05-11T01:05:39;101476.63;;;12.22;100.00
71964;BME280;59834;52.124;5.422;2023-05-11T01:08:17;101477.75;;;12.18;100.00
71964;BME280;59834;52.124;5.422;2023-05-11T01:13:28;101488.50;;;12.14;100.00
71964;BME280;59834;52.124;5.422;2023-05-11T01:15:59;101482.41;;;12.13;100.00
71964;BME280;59834;52.124;5.422;2023-05-11T01:18:36;101487.66;;;12.13;100.00
71964;BME280;59834;52.124;5.422;2023-05-11T01:21:05;101494.81;;;12.11;100.00
71964;BME280;59834;52.124;5.422;2023-05-11T01:29:19;101491.97;;;12.00;100.00
71964;BME280;59834;52.124;5.422;2023-05-11T01:31:54;101497.38;;;11.97;100.00
71964;BME280;59834;52.124;5.422;2023-05-11T01:34:23;101489.50;;;11.97;100.00
71964;BME280;59834;52.124;5.422;2023-05-11T01:36:56;101496.47;;;11.98;100.00
71964;BME280;59834;52.124;5.422;2023-05-11T01:39:29;101497.19;;;12.00;100.00
71964;BME280;59834;52.124;5.422;2023-05-11T01:42:03;101497.97;;;12.02;100.00
71964;BME280;59834;52.124;5.422;2023-05-11T01:44:31;101489.25;;;12.01;100.00
71964;BME280;59834;52.124;5.422;2023-05-11T01:46:59;101489.50;;;11.97;100.00
71964;BME280;59834;52.124;5.422;2023-05-11T01:49:28;101492.41;;;11.92;100.00
71964;BME280;59834;52.124;5.422;2023-05-11T01:51:59;101497.16;;;11.86;100.00
71964;BME280;59834;52.124;5.422;2023-05-11T01:54:27;101501.72;;;11.82;100.00
71964;BME280;59834;52.124;5.422;2023-05-11T01:56:56;101502.06;;;11.76;100.00
71964;BME280;59834;52.124;5.422;2023-05-11T01:59:25;101499.06;;;11.68;100.00
71964;BME280;59834;52.124;5.422;2023-05-11T02:01:52;101497.34;;;11.67;100.00
71964;BME280;59834;52.124;5.422;2023-05-11T02:04:20;101502.53;;;11.68;100.00
71964;BME280;59834;52.124;5.422;2023-05-11T02:06:51;101506.81;;;11.69;100.00
71964;BME280;59834;52.124;5.422;2023-05-11T02:09:20;101498.78;;;11.72;100.00
71964;BME280;59834;52.124;5.422;2023-05-11T02:11:50;101497.78;;;11.75;100.00
71964;BME280;59834;52.124;5.422;2023-05-11T02:14:20;101504.63;;;11.77;100.00
71964;BME280;59834;52.124;5.422;2023-05-11T02:16:49;101502.75;;;11.79;100.00
71964;BME280;59834;52.124;5.422;2023-05-11T02:19:16;101501.91;;;11.79;100.00
71964;BME280;59834;52.124;5.422;2023-05-11T02:21:45;101500.94;;;11.80;100.00
71964;BME280;59834;52.124;5.422;2023-05-11T02:24:12;101506.97;;;11.82;100.00
71964;BME280;59834;52.124;5.422;2023-05-11T02:26:40;101509.50;;;11.84;100.00
71964;BME280;59834;52.124;5.422;2023-05-11T02:29:07;101509.50;;;11.84;100.00
71964;BME280;59834;52.124;5.422;2023-05-11T02:31:38;101505.97;;;11.85;100.00
71964;BME280;59834;52.124;5.422;2023-05-11T02:34:13;101513.84;;;11.85;100.00
71964;BME280;59834;52.124;5.422;2023-05-11T02:36:52;101508.75;;;11.82;100.00
71964;BME280;59834;52.124;5.422;2023-05-11T02:39:20;101506.13;;;11.82;100.00
71964;BME280;59834;52.124;5.422;2023-05-11T02:41:55;101507.81;;;11.83;100.00
71964;BME280;59834;52.124;5.422;2023-05-11T02:44:27;101507.81;;;11.83;100.00
71964;BME280;59834;52.124;5.422;2023-05-11T02:47:10;101510.72;;;11.78;100.00
71964;BME280;59834;52.124;5.422;2023-05-11T02:49:43;101505.72;;;11.73;100.00
71964;BME280;59834;52.124;5.422;2023-05-11T02:52:15;101504.88;;;11.73;100.00
71964;BME280;59834;52.124;5.422;2023-05-11T02:54:43;101506.59;;;11.74;100.00
71964;BME280;59834;52.124;5.422;2023-05-11T02:57:10;101506.66;;;11.72;100.00
71964;BME280;59834;52.124;5.422;2023-05-11T02:59:37;101503.09;;;11.73;100.00
71964;BME280;59834;52.124;5.422;2023-05-11T03:02:04;101509.38;;;11.71;100.00
71964;BME280;59834;52.124;5.422;2023-05-11T03:04:32;101508.59;;;11.69;100.00
71964;BME280;59834;52.124;5.422;2023-05-11T03:06:59;101518.31;;;11.67;100.00
71964;BME280;59834;52.124;5.422;2023-05-11T03:09:26;101517.50;;;11.66;100.00
71964;BME280;59834;52.124;5.422;2023-05-11T03:11:53;101512.25;;;11.66;100.00
71964;BME280;59834;52.124;5.422;2023-05-11T03:14:20;101512.25;;;11.66;100.00
71964;BME280;59834;52.124;5.422;2023-05-11T03:16:47;101507.00;;;11.66;100.00
71964;BME280;59834;52.124;5.422;2023-05-11T03:19:17;101508.03;;;11.64;100.00
71964;BME280;59834;52.124;5.422;2023-05-11T03:21:45;101508.78;;;11.66;100.00
71964;BME280;59834;52.124;5.422;2023-05-11T03:24:13;101509.72;;;11.65;100.00
71964;BME280;59834;52.124;5.422;2023-05-11T03:26:40;101515.72;;;11.67;100.00
71964;BME280;59834;52.124;5.422;2023-05-11T03:29:09;101506.94;;;11.68;100.00
71964;BME280;59834;52.124;5.422;2023-05-11T03:31:37;101496.34;;;11.69;100.00
71964;BME280;59834;52.124;5.422;2023-05-11T03:34:06;101498.13;;;11.69;100.00
71964;BME280;59834;52.124;5.422;2023-05-11T03:36:43;101494.66;;;11.68;100.00
71964;BME280;59834;52.124;5.422;2023-05-11T03:39:14;101499.91;;;11.68;100.00
71964;BME280;59834;52.124;5.422;2023-05-11T03:41:43;101492.97;;;11.67;100.00
71964;BME280;59834;52.124;5.422;2023-05-11T03:44:12;101496.44;;;11.68;100.00
71964;BME280;59834;52.124;5.422;2023-05-11T03:46:40;101487.63;;;11.69;100.00
71964;BME280;59834;52.124;5.422;2023-05-11T03:49:10;101486.03;;;11.66;100.00
71964;BME280;59834;52.124;5.422;2023-05-11T03:51:39;101491.38;;;11.65;100.00
71964;BME280;59834;52.124;5.422;2023-05-11T03:54:07;101488.66;;;11.66;100.00
71964;BME280;59834;52.124;5.422;2023-05-11T03:56:35;101488.91;;;11.62;100.00
71964;BME280;59834;52.124;5.422;2023-05-11T03:59:03;101495.19;;;11.59;100.00
71964;BME280;59834;52.124;5.422;2023-05-11T04:01:30;101498.56;;;11.61;100.00
71964;BME280;59834;52.124;5.422;2023-05-11T04:03:57;101491.53;;;11.62;100.00
71964;BME280;59834;52.124;5.422;2023-05-11T04:06:24;101492.38;;;11.62;100.00
71964;BME280;59834;52.124;5.422;2023-05-11T04:08:51;101494.16;;;11.62;100.00
71964;BME280;59834;52.124;5.422;2023-05-11T04:11:17;101495.94;;;11.61;100.00
71964;BME280;59834;52.124;5.422;2023-05-11T04:13:44;101502.97;;;11.61;100.00
71964;BME280;59834;52.124;5.422;2023-05-11T04:16:10;101495.19;;;11.59;100.00
71964;BME280;59834;52.124;5.422;2023-05-11T04:18:37;101499.47;;;11.60;100.00
71964;BME280;59834;52.124;5.422;2023-05-11T04:21:04;101500.25;;;11.62;100.00
71964;BME280;59834;52.124;5.422;2023-05-11T04:23:31;101501.94;;;11.63;100.00
71964;BME280;59834;52.124;5.422;2023-05-11T04:25:59;101509.91;;;11.62;100.00
71964;BME280;59834;52.124;5.422;2023-05-11T04:28:26;101515.13;;;11.62;100.00
71964;BME280;59834;52.124;5.422;2023-05-11T04:30:56;101517.84;;;11.60;100.00
71964;BME280;59834;52.124;5.422;2023-05-11T04:33:23;101515.97;;;11.62;100.00
71964;BME280;59834;52.124;5.422;2023-05-11T04:35:51;101519.53;;;11.61;100.00
71964;BME280;59834;52.124;5.422;2023-05-11T04:38:19;101517.59;;;11.65;100.00
71964;BME280;59834;52.124;5.422;2023-05-11T04:40:46;101516.56;;;11.67;100.00
71964;BME280;59834;52.124;5.422;2023-05-11T04:43:13;101519.03;;;11.70;100.00
71964;BME280;59834;52.124;5.422;2023-05-11T04:45:41;101512.75;;;11.73;100.00
71964;BME280;59834;52.124;5.422;2023-05-11T04:48:07;101515.28;;;11.74;100.00
71964;BME280;59834;52.124;5.422;2023-05-11T04:50:35;101513.50;;;11.75;100.00
71964;BME280;59834;52.124;5.422;2023-05-11T04:53:02;101517.75;;;11.77;100.00
71964;BME280;59834;52.124;5.422;2023-05-11T04:55:31;101515.97;;;11.78;100.00
71964;BME280;59834;52.124;5.422;2023-05-11T04:57:57;101515.34;;;11.73;100.00
71964;BME280;59834;52.124;5.422;2023-05-11T05:00:24;101518.31;;;11.67;100.00
71964;BME280;59834;52.124;5.422;2023-05-11T05:02:51;101518.31;;;11.67;100.00
71964;BME280;59834;52.124;5.422;2023-05-11T05:05:21;101519.19;;;11.67;100.00
71964;BME280;59834;52.124;5.422;2023-05-11T05:07:54;101524.34;;;11.69;100.00
71964;BME280;59834;52.124;5.422;2023-05-11T05:10:29;101517.81;;;11.76;100.00
71964;BME280;59834;52.124;5.422;2023-05-11T05:13:06;101524.50;;;11.82;100.00
71964;BME280;59834;52.124;5.422;2023-05-11T05:15:32;101532.88;;;11.88;100.00
71964;BME280;59834;52.124;5.422;2023-05-11T05:18:02;101525.56;;;11.93;100.00
71964;BME280;59834;52.124;5.422;2023-05-11T05:20:32;101532.19;;;12.00;100.00
71964;BME280;59834;52.124;5.422;2023-05-11T05:23:03;101532.63;;;12.07;100.00
71964;BME280;59834;52.124;5.422;2023-05-11T05:25:32;101536.69;;;12.13;100.00
71964;BME280;59834;52.124;5.422;2023-05-11T05:27:58;101542.41;;;12.19;100.00
71964;BME280;59834;52.124;5.422;2023-05-11T05:30:25;101536.44;;;12.17;100.00
71964;BME280;59834;52.124;5.422;2023-05-11T05:32:52;101536.50;;;12.16;100.00
71964;BME280;59834;52.124;5.422;2023-05-11T05:35:20;101538.78;;;12.22;100.00
71964;BME280;59834;52.124;5.422;2023-05-11T05:37:47;101537.28;;;12.32;100.00
71964;BME280;59834;52.124;5.422;2023-05-11T05:40:14;101545.72;;;12.37;100.00
71964;BME280;59834;52.124;5.422;2023-05-11T05:42:40;101549.59;;;12.46;100.00
71964;BME280;59834;52.124;5.422;2023-05-11T05:45:07;101544.69;;;12.40;100.00
71964;BME280;59834;52.124;5.422;2023-05-11T05:47:39;101550.72;;;12.42;100.00
71964;BME280;59834;52.124;5.422;2023-05-11T05:50:07;101552.13;;;12.47;100.00
71964;BME280;59834;52.124;5.422;2023-05-11T05:52:34;101554.06;;;12.44;100.00
71964;BME280;59834;52.124;5.422;2023-05-11T05:55:00;101560.44;;;12.40;100.00
71964;BME280;59834;52.124;5.422;2023-05-11T05:57:27;101562.69;;;12.32;100.00
71964;BME280;59834;52.124;5.422;2023-05-11T05:59:55;101560.53;;;12.24;100.00
71964;BME280;59834;52.124;5.422;2023-05-11T06:02:25;101567.38;;;12.26;100.00
71964;BME280;59834;52.124;5.422;2023-05-11T06:04:52;101572.53;;;12.28;100.00
71964;BME280;59834;52.124;5.422;2023-05-11T06:07:22;101576.38;;;12.37;100.00
71964;BME280;59834;52.124;5.422;2023-05-11T06:09:49;101572.47;;;12.44;100.00
71964;BME280;59834;52.124;5.422;2023-05-11T06:12:15;101580.72;;;12.38;100.00
71964;BME280;59834;52.124;5.422;2023-05-11T06:14:48;101577.03;;;12.40;100.00
71964;BME280;59834;52.124;5.422;2023-05-11T06:17:14;101579.41;;;12.45;100.00
71964;BME280;59834;52.124;5.422;2023-05-11T06:19:41;101580.75;;;12.52;100.00
71964;BME280;59834;52.124;5.422;2023-05-11T06:22:08;101580.56;;;12.55;100.00
71964;BME280;59834;52.124;5.422;2023-05-11T06:24:34;101581.41;;;12.70;100.00
71964;BME280;59834;52.124;5.422;2023-05-11T06:27:01;101582.44;;;12.82;100.00
71964;BME280;59834;52.124;5.422;2023-05-11T06:29:28;101576.84;;;12.88;100.00
71964;BME280;59834;52.124;5.422;2023-05-11T06:31:55;101580.75;;;12.95;100.00
71964;BME280;59834;52.124;5.422;2023-05-11T06:34:21;101582.16;;;13.01;100.00
71964;BME280;59834;52.124;5.422;2023-05-11T06:36:58;101577.94;;;12.98;100.00
71964;BME280;59834;52.124;5.422;2023-05-11T06:39:25;101580.47;;;13.00;100.00
71964;BME280;59834;52.124;5.422;2023-05-11T06:41:51;101581.41;;;12.98;100.00
71964;BME280;59834;52.124;5.422;2023-05-11T06:44:21;101589.66;;;13.07;100.00
71964;BME280;59834;52.124;5.422;2023-05-11T06:46:48;101593.50;;;13.15;100.00
71964;BME280;59834;52.124;5.422;2023-05-11T06:49:15;101593.88;;;13.24;100.00
71964;BME280;59834;52.124;5.422;2023-05-11T06:51:41;101584.69;;;13.31;100.00
71964;BME280;59834;52.124;5.422;2023-05-11T06:54:08;101585.97;;;13.38;100.00
71964;BME280;59834;52.124;5.422;2023-05-11T06:56:34;101593.28;;;13.47;100.00
71964;BME280;59834;52.124;5.422;2023-05-11T06:59:02;101595.00;;;13.48;100.00
71964;BME280;59834;52.124;5.422;2023-05-11T07:01:28;101590.47;;;13.50;100.00
71964;BME280;59834;52.124;5.422;2023-05-11T07:03:55;101587.66;;;13.53;100.00
71964;BME280;59834;52.124;5.422;2023-05-11T07:06:22;101591.69;;;13.59;100.00
71964;BME280;59834;52.124;5.422;2023-05-11T07:08:49;101587.25;;;13.59;100.00
71964;BME280;59834;52.124;5.422;2023-05-11T07:11:15;101587.78;;;13.64;100.00
71964;BME280;59834;52.124;5.422;2023-05-11T07:13:42;101590.41;;;13.79;100.00
71964;BME280;59834;52.124;5.422;2023-05-11T07:16:08;101581.78;;;13.89;100.00
71964;BME280;59834;52.124;5.422;2023-05-11T07:18:35;101579.69;;;13.95;100.00
71964;BME280;59834;52.124;5.422;2023-05-11T07:21:02;101591.94;;;13.96;100.00
71964;BME280;59834;52.124;5.422;2023-05-11T07:23:28;101590.47;;;14.04;100.00
71964;BME280;59834;52.124;5.422;2023-05-11T07:25:55;101595.31;;;14.10;100.00
71964;BME280;59834;52.124;5.422;2023-05-11T07:28:24;101590.06;;;14.10;100.00
71964;BME280;59834;52.124;5.422;2023-05-11T07:30:51;101590.81;;;14.12;99.56
71964;BME280;59834;52.124;5.422;2023-05-11T07:33:19;101593.13;;;14.17;98.37
71964;BME280;59834;52.124;5.422;2023-05-11T07:35:46;101592.59;;;14.25;97.47
71964;BME280;59834;52.124;5.422;2023-05-11T07:38:13;101591.03;;;14.62;95.75
71964;BME280;59834;52.124;5.422;2023-05-11T07:40:41;101596.66;;;15.07;93.89
71964;BME280;59834;52.124;5.422;2023-05-11T07:43:08;101594.22;;;15.66;90.81
71964;BME280;59834;52.124;5.422;2023-05-11T07:45:35;101589.16;;;15.87;85.81
71964;BME280;59834;52.124;5.422;2023-05-11T07:48:02;101592.09;;;15.59;83.64
71964;BME280;59834;52.124;5.422;2023-05-11T07:50:30;101594.28;;;15.28;88.26
71964;BME280;59834;52.124;5.422;2023-05-11T07:52:57;101598.25;;;15.09;88.47
71964;BME280;59834;52.124;5.422;2023-05-11T07:55:23;101592.34;;;15.06;89.98
71964;BME280;59834;52.124;5.422;2023-05-11T07:57:52;101596.06;;;14.91;89.29
71964;BME280;59834;52.124;5.422;2023-05-11T08:00:19;101597.22;;;14.87;89.23
71964;BME280;59834;52.124;5.422;2023-05-11T08:02:46;101592.56;;;14.90;89.50
71964;BME280;59834;52.124;5.422;2023-05-11T08:05:13;101602.16;;;15.04;89.19
71964;BME280;59834;52.124;5.422;2023-05-11T08:07:40;101602.34;;;15.14;90.12
71964;BME280;59834;52.124;5.422;2023-05-11T08:10:07;101600.13;;;15.20;89.52
71964;BME280;59834;52.124;5.422;2023-05-11T08:12:35;101610.53;;;15.35;88.22
71964;BME280;59834;52.124;5.422;2023-05-11T08:15:04;101607.72;;;15.49;87.63
71964;BME280;59834;52.124;5.422;2023-05-11T08:17:31;101604.38;;;15.47;86.21
71964;BME280;59834;52.124;5.422;2023-05-11T08:19:57;101604.78;;;15.53;84.77
71964;BME280;59834;52.124;5.422;2023-05-11T08:22:24;101598.41;;;15.69;84.19
71964;BME280;59834;52.124;5.422;2023-05-11T08:24:51;101599.03;;;15.72;83.37
71964;BME280;59834;52.124;5.422;2023-05-11T08:27:19;101597.56;;;15.92;81.60
71964;BME280;59834;52.124;5.422;2023-05-11T08:29:47;101597.25;;;15.97;81.63
71964;BME280;59834;52.124;5.422;2023-05-11T08:32:14;101595.53;;;15.96;81.74
71964;BME280;59834;52.124;5.422;2023-05-11T08:34:41;101596.31;;;16.09;80.74
71964;BME280;59834;52.124;5.422;2023-05-11T08:37:08;101597.19;;;16.10;80.47
71964;BME280;59834;52.124;5.422;2023-05-11T08:39:35;101599.31;;;16.05;81.25
71964;BME280;59834;52.124;5.422;2023-05-11T08:42:14;101595.94;;;16.38;80.37
71964;BME280;59834;52.124;5.422;2023-05-11T08:44:42;101590.28;;;16.42;79.47
71964;BME280;59834;52.124;5.422;2023-05-11T08:47:10;101599.94;;;16.55;78.08
71964;BME280;59834;52.124;5.422;2023-05-11T08:49:50;101595.38;;;16.68;77.78
71964;BME280;59834;52.124;5.422;2023-05-11T08:52:20;101591.09;;;16.78;77.78
71964;BME280;59834;52.124;5.422;2023-05-11T08:54:46;101598.78;;;16.81;78.41
71964;BME280;59834;52.124;5.422;2023-05-11T08:57:16;101593.25;;;16.95;74.83
71964;BME280;59834;52.124;5.422;2023-05-11T08:59:44;101598.28;;;17.10;74.59
71964;BME280;59834;52.124;5.422;2023-05-11T09:02:18;101589.19;;;17.14;74.57
71964;BME280;59834;52.124;5.422;2023-05-11T09:04:47;101592.66;;;17.14;76.02
71964;BME280;59834;52.124;5.422;2023-05-11T09:07:17;101584.00;;;17.01;75.44
71964;BME280;59834;52.124;5.422;2023-05-11T09:09:45;101589.03;;;16.93;74.79
71964;BME280;59834;52.124;5.422;2023-05-11T09:12:12;101583.06;;;16.91;74.00
71964;BME280;59834;52.124;5.422;2023-05-11T09:14:40;101588.44;;;16.89;76.55
71964;BME280;59834;52.124;5.422;2023-05-11T09:17:06;101585.31;;;16.95;75.00
71964;BME280;59834;52.124;5.422;2023-05-11T09:19:33;101589.41;;;17.11;75.49
71964;BME280;59834;52.124;5.422;2023-05-11T09:22:00;101595.78;;;17.31;73.51
71964;BME280;59834;52.124;5.422;2023-05-11T09:24:27;101585.81;;;17.66;71.68
71964;BME280;59834;52.124;5.422;2023-05-11T09:27:08;101590.91;;;17.90;70.77
71964;BME280;59834;52.124;5.422;2023-05-11T09:29:35;101583.28;;;18.29;69.43
71964;BME280;59834;52.124;5.422;2023-05-11T09:32:02;101582.63;;;18.58;68.68
71964;BME280;59834;52.124;5.422;2023-05-11T09:34:28;101589.09;;;18.65;67.64
71964;BME280;59834;52.124;5.422;2023-05-11T09:36:55;101579.69;;;18.61;67.92
71964;BME280;59834;52.124;5.422;2023-05-11T09:39:29;101583.09;;;18.94;67.32
71964;BME280;59834;52.124;5.422;2023-05-11T09:42:20;101583.72;;;19.17;64.81
71964;BME280;59834;52.124;5.422;2023-05-11T09:44:48;101585.41;;;19.08;65.33
71964;BME280;59834;52.124;5.422;2023-05-11T09:47:16;101587.06;;;19.09;64.82
71964;BME280;59834;52.124;5.422;2023-05-11T09:49:45;101585.44;;;19.27;64.76
71964;BME280;59834;52.124;5.422;2023-05-11T09:52:16;101582.94;;;19.26;65.55
71964;BME280;59834;52.124;5.422;2023-05-11T09:54:47;101591.88;;;19.25;67.22
71964;BME280;59834;52.124;5.422;2023-05-11T09:57:25;101580.88;;;18.99;65.24
71964;BME280;59834;52.124;5.422;2023-05-11T09:59:52;101581.19;;;18.54;65.95
71964;BME280;59834;52.124;5.422;2023-05-11T10:04:52;101579.91;;;18.27;65.32
71964;BME280;59834;52.124;5.422;2023-05-11T10:07:34;101579.28;;;18.35;66.79
71964;BME280;59834;52.124;5.422;2023-05-11T10:10:07;101577.41;;;18.26;64.95
71964;BME280;59834;52.124;5.422;2023-05-11T10:12:35;101580.34;;;17.90;64.58
71964;BME280;59834;52.124;5.422;2023-05-11T10:15:08;101579.97;;;17.52;65.70
71964;BME280;59834;52.124;5.422;2023-05-11T10:17:35;101577.97;;;17.22;70.00
71964;BME280;59834;52.124;5.422;2023-05-11T10:20:04;101591.56;;;16.83;74.26
71964;BME280;59834;52.124;5.422;2023-05-11T10:22:31;101589.13;;;16.69;76.17
71964;BME280;59834;52.124;5.422;2023-05-11T10:24:59;101587.31;;;16.58;77.76
71964;BME280;59834;52.124;5.422;2023-05-11T10:27:26;101584.28;;;16.40;78.24
71964;BME280;59834;52.124;5.422;2023-05-11T10:29:53;101592.41;;;16.26;78.96
71964;BME280;59834;52.124;5.422;2023-05-11T10:32:20;101587.56;;;16.09;80.08
71964;BME280;59834;52.124;5.422;2023-05-11T10:34:48;101594.47;;;15.98;81.21
71964;BME280;59834;52.124;5.422;2023-05-11T10:37:17;101596.91;;;15.77;81.88
71964;BME280;59834;52.124;5.422;2023-05-11T10:39:46;101597.06;;;15.63;82.46
71964;BME280;59834;52.124;5.422;2023-05-11T10:51:48;101612.91;;;14.75;93.27
71964;BME280;59834;52.124;5.422;2023-05-11T10:57:05;101629.88;;;14.58;95.84
71964;BME280;59834;52.124;5.422;2023-05-11T11:02:42;101640.19;;;14.22;100.00
71964;BME280;59834;52.124;5.422;2023-05-11T11:05:10;101637.25;;;14.13;100.00
71964;BME280;59834;52.124;5.422;2023-05-11T11:08:01;101634.28;;;14.05;100.00
71964;BME280;59834;52.124;5.422;2023-05-11T11:10:40;101623.59;;;13.94;100.00
71964;BME280;59834;52.124;5.422;2023-05-11T11:13:12;101622.09;;;13.90;100.00
71964;BME280;59834;52.124;5.422;2023-05-11T11:18:39;101626.88;;;13.71;100.00
71964;BME280;59834;52.124;5.422;2023-05-11T11:21:06;101627.06;;;13.67;100.00
71964;BME280;59834;52.124;5.422;2023-05-11T11:23:47;101618.31;;;13.67;100.00
71964;BME280;59834;52.124;5.422;2023-05-11T11:26:46;101618.06;;;13.72;100.00
71964;BME280;59834;52.124;5.422;2023-05-11T11:29:16;101618.78;;;13.74;100.00
71964;BME280;59834;52.124;5.422;2023-05-11T11:31:43;101621.59;;;13.71;100.00
71964;BME280;59834;52.124;5.422;2023-05-11T11:37:21;101612.28;;;13.79;100.00
71964;BME280;59834;52.124;5.422;2023-05-11T11:39:50;101606.13;;;13.93;100.00
71964;BME280;59834;52.124;5.422;2023-05-11T11:42:33;101605.91;;;13.96;100.00
71964;BME280;59834;52.124;5.422;2023-05-11T11:45:26;101612.59;;;14.02;100.00
71964;BME280;59834;52.124;5.422;2023-05-11T11:48:09;101613.03;;;14.08;100.00
71964;BME280;59834;52.124;5.422;2023-05-11T11:50:38;101616.81;;;14.17;100.00
71964;BME280;59834;52.124;5.422;2023-05-11T11:53:09;101626.31;;;14.20;100.00
71964;BME280;59834;52.124;5.422;2023-05-11T11:55:45;101625.28;;;14.22;100.00
71964;BME280;59834;52.124;5.422;2023-05-11T12:01:05;101631.81;;;14.29;100.00
71964;BME280;59834;52.124;5.422;2023-05-11T12:03:34;101628.78;;;14.35;100.00
71964;BME280;59834;52.124;5.422;2023-05-11T12:06:06;101627.69;;;14.38;100.00
71964;BME280;59834;52.124;5.422;2023-05-11T12:08:36;101631.84;;;14.42;100.00
71964;BME280;59834;52.124;5.422;2023-05-11T12:11:04;101634.25;;;14.45;100.00
71964;BME280;59834;52.124;5.422;2023-05-11T12:13:32;101640.25;;;14.47;100.00
71964;BME280;59834;52.124;5.422;2023-05-11T12:16:09;101638.94;;;14.54;100.00
71964;BME280;59834;52.124;5.422;2023-05-11T12:18:39;101627.88;;;14.75;100.00
71964;BME280;59834;52.124;5.422;2023-05-11T12:21:17;101628.94;;;14.85;100.00
71964;BME280;59834;52.124;5.422;2023-05-11T12:23:55;101616.19;;;15.04;100.00
71964;BME280;59834;52.124;5.422;2023-05-11T12:26:23;101619.22;;;14.98;100.00
71964;BME280;59834;52.124;5.422;2023-05-11T12:28:50;101618.19;;;15.14;100.00
71964;BME280;59834;52.124;5.422;2023-05-11T12:31:17;101615.31;;;15.17;100.00
71964;BME280;59834;52.124;5.422;2023-05-11T12:33:49;101617.44;;;15.12;100.00
71964;BME280;59834;52.124;5.422;2023-05-11T12:36:17;101618.19;;;15.01;100.00
71964;BME280;59834;52.124;5.422;2023-05-11T12:38:50;101620.41;;;15.07;100.00
71964;BME280;59834;52.124;5.422;2023-05-11T12:41:23;101622.19;;;15.06;100.00
71964;BME280;59834;52.124;5.422;2023-05-11T12:43:50;101621.03;;;15.11;100.00
71964;BME280;59834;52.124;5.422;2023-05-11T12:46:18;101618.38;;;15.11;100.00
71964;BME280;59834;52.124;5.422;2023-05-11T12:48:46;101618.91;;;15.16;100.00
71964;BME280;59834;52.124;5.422;2023-05-11T12:51:48;101621.50;;;15.28;100.00
71964;BME280;59834;52.124;5.422;2023-05-11T12:54:27;101621.00;;;15.36;100.00
71964;BME280;59834;52.124;5.422;2023-05-11T12:56:53;101627.16;;;15.48;100.00
71964;BME280;59834;52.124;5.422;2023-05-11T12:59:32;101622.00;;;15.46;100.00
71964;BME280;59834;52.124;5.422;2023-05-11T13:02:16;101624.88;;;15.43;100.00
71964;BME280;59834;52.124;5.422;2023-05-11T13:04:44;101618.91;;;15.52;100.00
71964;BME280;59834;52.124;5.422;2023-05-11T13:07:11;101622.94;;;15.45;100.00
71964;BME280;59834;52.124;5.422;2023-05-11T13:09:55;101623.16;;;15.42;100.00
71964;BME280;59834;52.124;5.422;2023-05-11T13:12:24;101618.56;;;15.33;100.00
71964;BME280;59834;52.124;5.422;2023-05-11T13:15:10;101621.09;;;15.22;100.00
71964;BME280;59834;52.124;5.422;2023-05-11T13:17:40;101627.53;;;15.18;100.00
71964;BME280;59834;52.124;5.422;2023-05-11T13:20:23;101619.75;;;15.16;100.00
71964;BME280;59834;52.124;5.422;2023-05-11T13:25:29;101628.50;;;15.17;100.00
71964;BME280;59834;52.124;5.422;2023-05-11T13:27:55;101626.22;;;14.99;100.00
71964;BME280;59834;52.124;5.422;2023-05-11T13:30:26;101623.25;;;14.91;100.00
71964;BME280;59834;52.124;5.422;2023-05-11T13:32:52;101619.06;;;14.76;98.32